createdAt,value
2024-01-15T00:00:06.210Z,147597.97
2024-01-15T00:01:09.308Z,147595.42
2024-01-15T00:02:13.217Z,147634.69
2024-01-15T00:03:15.289Z,147609.34
2024-01-15T00:04:17.497Z,147646.09
2024-01-15T00:05:19.677Z,147633.44
2024-01-15T00:06:23.993Z,147632.14
2024-01-15T00:07:26.223Z,147646.09
2024-01-15T00:08:28.140Z,147596.69
2024-01-15T00:09:30.121Z,147596.69
2024-01-15T00:10:32.635Z,147595.42
2024-01-15T00:11:35.419Z,147606.83
2024-01-15T00:12:37.455Z,147609.34
2024-01-15T00:13:39.959Z,147596.69
2024-01-15T00:14:41.908Z,147618.23
2024-01-15T00:15:43.928Z,147629.64
2024-01-15T00:16:47.263Z,147591.62
2024-01-15T00:17:49.328Z,147633.44
2024-01-15T00:18:51.570Z,147591.62
2024-01-15T00:19:54.099Z,147639.75
2024-01-15T00:20:56.716Z,147667.61
2024-01-15T00:21:58.802Z,147684.06
2024-01-15T00:23:00.826Z,147685.36
2024-01-15T00:24:03.203Z,147698.03
2024-01-15T00:25:05.785Z,147708.13
2024-01-15T00:26:10.634Z,147700.56
2024-01-15T00:27:12.449Z,147692.97
2024-01-15T00:28:14.575Z,147700.56
2024-01-15T00:29:16.625Z,147703.08
2024-01-15T00:30:19.307Z,147710.69
2024-01-15T00:31:21.555Z,147715.73
2024-01-15T00:32:23.841Z,147717.03
2024-01-15T00:33:25.969Z,147728.44
2024-01-15T00:34:28.322Z,147701.83
2024-01-15T00:35:30.461Z,147703.08
2024-01-15T00:36:32.772Z,147710.69
2024-01-15T00:37:38.472Z,147690.42
2024-01-15T00:38:40.438Z,147692.97
2024-01-15T00:39:42.657Z,147672.70
2024-01-15T00:40:44.967Z,147675.22
2024-01-15T00:41:46.985Z,147696.77
2024-01-15T00:42:49.218Z,147705.63
2024-01-15T00:43:51.235Z,147710.69
2024-01-15T00:44:53.323Z,147700.56
2024-01-15T00:45:55.367Z,147695.47
2024-01-15T00:46:57.545Z,147711.94
2024-01-15T00:47:59.791Z,147649.91
2024-01-15T00:49:01.913Z,147634.69
2024-01-15T00:50:04.446Z,147629.64
2024-01-15T00:51:07.116Z,147639.75
2024-01-15T00:52:09.077Z,147681.56
2024-01-15T00:53:11.003Z,147675.22
2024-01-15T00:54:14.160Z,147673.95
2024-01-15T00:55:17.270Z,147600.48
2024-01-15T00:56:20.016Z,147654.95
2024-01-15T00:57:22.221Z,147627.09
2024-01-15T00:58:24.479Z,147672.70
2024-01-15T00:59:26.614Z,147649.91
2024-01-15T01:00:29.128Z,147653.69
2024-01-15T01:01:32.348Z,147656.20
2024-01-15T01:02:34.563Z,147629.64
2024-01-15T01:03:37.829Z,147619.48
2024-01-15T01:04:40.693Z,147634.69
2024-01-15T01:05:43.141Z,147630.89
2024-01-15T01:06:45.454Z,147637.23
2024-01-15T01:07:47.719Z,147654.95
2024-01-15T01:08:49.742Z,147681.56
2024-01-15T01:09:53.165Z,147687.87
2024-01-15T01:10:57.473Z,147692.97
2024-01-15T01:11:59.853Z,147685.36
2024-01-15T01:13:06.313Z,147660.00
2024-01-15T01:14:08.678Z,147673.95
2024-01-15T01:15:11.274Z,147696.77
2024-01-15T01:16:14.455Z,147705.63
2024-01-15T01:17:16.410Z,147692.97
2024-01-15T01:18:20.935Z,147718.28
2024-01-15T01:19:23.534Z,147736.05
2024-01-15T01:20:26.043Z,147743.61
2024-01-15T01:21:28.260Z,147738.55
2024-01-15T01:22:31.116Z,147756.31
2024-01-15T01:23:33.410Z,147737.30
2024-01-15T01:24:35.344Z,147738.55
2024-01-15T01:25:37.306Z,147699.28
2024-01-15T01:26:41.218Z,147719.53
2024-01-15T01:27:43.472Z,147717.03
2024-01-15T01:28:45.532Z,147638.50
2024-01-15T01:29:47.539Z,147677.77
2024-01-15T01:30:49.929Z,147681.56
2024-01-15T01:31:52.326Z,147662.55
2024-01-15T01:32:54.449Z,147699.28
2024-01-15T01:33:56.678Z,147675.22
2024-01-15T01:34:58.805Z,147619.48
2024-01-15T01:36:00.754Z,147610.63
2024-01-15T01:37:02.669Z,147637.23
2024-01-15T01:38:04.660Z,147604.28
2024-01-15T01:39:06.624Z,147567.56
2024-01-15T01:40:09.873Z,147633.44
2024-01-15T01:41:11.883Z,147608.08
2024-01-15T01:42:14.052Z,147646.09
2024-01-15T01:43:16.093Z,147622.03
2024-01-15T01:44:18.027Z,147601.78
2024-01-15T01:45:20.044Z,147604.28
2024-01-15T01:46:22.771Z,147623.28
2024-01-15T01:47:25.203Z,147660.00
2024-01-15T01:48:28.103Z,147642.30
2024-01-15T01:49:30.820Z,147613.13
2024-01-15T01:50:33.887Z,147651.14
2024-01-15T01:51:36.415Z,147642.30
2024-01-15T01:52:40.139Z,147563.77
2024-01-15T01:53:42.180Z,147594.17
2024-01-15T01:54:44.383Z,147637.23
2024-01-15T01:55:48.435Z,147627.09
2024-01-15T01:56:52.964Z,147616.94
2024-01-15T01:57:56.342Z,147629.64
2024-01-15T01:58:59.100Z,147627.09
2024-01-15T02:00:03.790Z,147639.75
2024-01-15T02:01:07.812Z,147590.38
2024-01-15T02:02:11.758Z,147573.92
2024-01-15T02:03:14.863Z,147582.78
2024-01-15T02:04:21.660Z,147573.92
2024-01-15T02:05:24.900Z,147615.69
2024-01-15T02:06:28.969Z,147587.83
2024-01-15T02:07:34.656Z,147620.73
2024-01-15T02:08:37.240Z,147628.34
2024-01-15T02:09:39.177Z,147546.02
2024-01-15T02:10:41.247Z,147610.63
2024-01-15T02:11:43.457Z,147629.64
2024-01-15T02:12:45.647Z,147614.44
2024-01-15T02:13:48.362Z,147623.28
2024-01-15T02:14:51.118Z,147652.41
2024-01-15T02:15:54.338Z,147642.30
2024-01-15T02:16:56.769Z,147662.55
2024-01-15T02:18:07.345Z,147649.91
2024-01-15T02:19:17.645Z,147649.91
2024-01-15T02:20:23.228Z,147637.23
2024-01-15T02:21:25.358Z,147660.00
2024-01-15T02:22:27.308Z,147665.09
2024-01-15T02:23:29.423Z,147662.55
2024-01-15T02:24:31.781Z,147639.75
2024-01-15T02:25:38.054Z,147643.55
2024-01-15T02:26:40.340Z,147613.13
2024-01-15T02:27:44.418Z,147603.03
2024-01-15T02:28:46.601Z,147642.30
2024-01-15T02:29:49.132Z,147614.44
2024-01-15T02:30:51.635Z,147647.34
2024-01-15T02:31:53.770Z,147680.27
2024-01-15T02:32:55.818Z,147680.27
2024-01-15T02:33:58.363Z,147662.55
2024-01-15T02:35:00.806Z,147681.56
2024-01-15T02:36:03.307Z,147639.75
2024-01-15T02:37:05.397Z,147656.20
2024-01-15T02:38:08.126Z,147672.70
2024-01-15T02:39:10.194Z,147667.61
2024-01-15T02:40:12.572Z,147670.16
2024-01-15T02:41:14.475Z,147686.61
2024-01-15T02:42:16.448Z,147677.77
2024-01-15T02:43:18.435Z,147644.80
2024-01-15T02:44:20.519Z,147610.63
2024-01-15T02:45:23.184Z,147599.22
2024-01-15T02:46:25.933Z,147634.69
2024-01-15T02:47:27.882Z,147661.30
2024-01-15T02:48:29.957Z,147618.23
2024-01-15T02:49:31.996Z,147568.81
2024-01-15T02:50:34.475Z,147571.38
2024-01-15T02:51:36.530Z,147619.48
2024-01-15T02:52:38.522Z,147582.78
2024-01-15T02:53:40.497Z,147565.02
2024-01-15T02:54:43.046Z,147611.88
2024-01-15T02:55:45.032Z,147635.94
2024-01-15T02:56:47.316Z,147648.59
2024-01-15T02:57:49.461Z,147653.69
2024-01-15T02:58:51.529Z,147646.09
2024-01-15T02:59:53.558Z,147654.95
2024-01-15T03:00:55.966Z,147604.28
2024-01-15T03:01:58.464Z,147651.14
2024-01-15T03:03:00.637Z,147665.09
2024-01-15T03:04:03.628Z,147639.75
2024-01-15T03:05:07.574Z,147660.00
2024-01-15T03:06:11.491Z,147663.81
2024-01-15T03:07:14.193Z,147672.70
2024-01-15T03:08:16.212Z,147665.09
2024-01-15T03:09:18.270Z,147637.23
2024-01-15T03:10:21.935Z,147606.83
2024-01-15T03:11:24.065Z,147614.44
2024-01-15T03:12:26.043Z,147634.69
2024-01-15T03:13:28.253Z,147604.28
2024-01-15T03:14:30.309Z,147615.69
2024-01-15T03:15:32.277Z,147633.44
2024-01-15T03:16:34.364Z,147620.73
2024-01-15T03:17:36.377Z,147581.47
2024-01-15T03:18:38.404Z,147581.47
2024-01-15T03:19:40.453Z,147594.17
2024-01-15T03:20:43.534Z,147582.78
2024-01-15T03:21:45.577Z,147565.02
2024-01-15T03:22:47.578Z,147584.03
2024-01-15T03:23:49.647Z,147616.94
2024-01-15T03:24:52.868Z,147604.28
2024-01-15T03:25:54.893Z,147615.69
2024-01-15T03:26:57.449Z,147600.48
2024-01-15T03:27:59.511Z,147619.48
2024-01-15T03:29:01.515Z,147627.09
2024-01-15T03:30:04.272Z,147606.83
2024-01-15T03:31:07.750Z,147632.14
2024-01-15T03:32:11.169Z,147601.78
2024-01-15T03:33:13.156Z,147552.37
2024-01-15T03:34:15.777Z,147529.56
2024-01-15T03:35:17.778Z,147524.52
2024-01-15T03:36:20.859Z,147558.72
2024-01-15T03:37:22.914Z,147529.56
2024-01-15T03:38:24.824Z,147547.31
2024-01-15T03:39:26.974Z,147558.72
2024-01-15T03:40:29.597Z,147548.56
2024-01-15T03:41:31.619Z,147578.97
2024-01-15T03:42:33.743Z,147581.47
2024-01-15T03:43:35.877Z,147584.03
2024-01-15T03:44:38.012Z,147590.38
2024-01-15T03:45:40.064Z,147592.88
2024-01-15T03:46:42.469Z,147604.28
2024-01-15T03:47:44.480Z,147534.66
2024-01-15T03:48:46.944Z,147523.27
2024-01-15T03:49:49.256Z,147572.63
2024-01-15T03:50:51.883Z,147576.42
2024-01-15T03:51:54.965Z,147466.27
2024-01-15T03:52:56.903Z,147489.06
2024-01-15T03:53:58.799Z,147538.47
2024-01-15T03:55:00.770Z,147561.22
2024-01-15T03:56:03.185Z,147572.63
2024-01-15T03:57:05.253Z,147551.12
2024-01-15T03:58:07.351Z,147533.38
2024-01-15T03:59:09.330Z,147518.17
2024-01-15T04:00:14.938Z,147558.72
2024-01-15T04:01:17.121Z,147533.38
2024-01-15T04:02:19.159Z,147491.63
2024-01-15T04:03:21.435Z,147503.02
2024-01-15T04:04:23.725Z,147461.22
2024-01-15T04:05:26.565Z,147501.72
2024-01-15T04:06:29.339Z,147473.88
2024-01-15T04:07:31.510Z,147478.97
2024-01-15T04:08:33.414Z,147497.92
2024-01-15T04:09:35.403Z,147530.86
2024-01-15T04:10:37.826Z,147519.47
2024-01-15T04:11:39.901Z,147459.97
2024-01-15T04:12:42.312Z,147487.81
2024-01-15T04:13:44.244Z,147490.31
2024-01-15T04:14:46.262Z,147513.13
2024-01-15T04:15:48.197Z,147542.27
2024-01-15T04:16:50.633Z,147477.67
2024-01-15T04:17:52.610Z,147465.03
2024-01-15T04:18:54.628Z,147465.03
2024-01-15T04:19:56.727Z,147495.42
2024-01-15T04:20:59.184Z,147480.22
2024-01-15T04:22:01.128Z,147519.47
2024-01-15T04:23:03.265Z,147473.88
2024-01-15T04:24:05.683Z,147519.47
2024-01-15T04:25:07.898Z,147461.22
2024-01-15T04:26:10.189Z,147528.31
2024-01-15T04:27:15.151Z,147521.97
2024-01-15T04:28:17.175Z,147467.56
2024-01-15T04:29:19.192Z,147503.02
2024-01-15T04:30:22.101Z,147461.22
2024-01-15T04:31:25.864Z,147485.27
2024-01-15T04:32:28.004Z,147400.48
2024-01-15T04:33:30.210Z,147446.03
2024-01-15T04:34:32.459Z,147468.81
2024-01-15T04:35:34.795Z,147504.27
2024-01-15T04:36:41.863Z,147478.97
2024-01-15T04:37:44.031Z,147477.67
2024-01-15T04:38:45.997Z,147504.27
2024-01-15T04:39:48.054Z,147516.92
2024-01-15T04:40:50.579Z,147496.66
2024-01-15T04:41:52.616Z,147452.38
2024-01-15T04:42:55.128Z,147419.44
2024-01-15T04:43:57.123Z,147449.83
2024-01-15T04:45:01.198Z,147434.63
2024-01-15T04:46:05.437Z,147410.58
2024-01-15T04:47:07.470Z,147395.39
2024-01-15T04:48:09.626Z,147403.00
2024-01-15T04:49:12.529Z,147381.50
2024-01-15T04:50:15.968Z,147444.78
2024-01-15T04:51:18.035Z,147377.70
2024-01-15T04:52:20.133Z,147419.44
2024-01-15T04:53:24.059Z,147404.28
2024-01-15T04:54:26.092Z,147382.75
2024-01-15T04:55:29.419Z,147395.39
2024-01-15T04:56:32.130Z,147368.84
2024-01-15T04:57:37.466Z,147420.73
2024-01-15T04:58:39.680Z,147386.55
2024-01-15T04:59:41.630Z,147384.00
2024-01-15T05:00:44.177Z,147365.06
2024-01-15T05:01:46.196Z,147381.50
2024-01-15T05:02:48.354Z,147397.94
2024-01-15T05:03:50.843Z,147376.45
2024-01-15T05:04:53.082Z,147389.09
2024-01-15T05:05:55.280Z,147409.34
2024-01-15T05:06:57.782Z,147381.50
2024-01-15T05:07:59.872Z,147394.14
2024-01-15T05:09:01.959Z,147390.34
2024-01-15T05:10:04.652Z,147443.53
2024-01-15T05:11:10.184Z,147406.78
2024-01-15T05:12:12.270Z,147411.89
2024-01-15T05:13:16.246Z,147389.09
2024-01-15T05:14:18.352Z,147418.19
2024-01-15T05:15:20.380Z,147449.83
2024-01-15T05:16:24.196Z,147424.53
2024-01-15T05:17:26.123Z,147440.97
2024-01-15T05:18:28.264Z,147448.58
2024-01-15T05:19:30.530Z,147463.78
2024-01-15T05:20:32.884Z,147465.03
2024-01-15T05:21:34.996Z,147467.56
2024-01-15T05:22:36.993Z,147480.22
2024-01-15T05:23:38.984Z,147480.22
2024-01-15T05:24:42.445Z,147447.28
2024-01-15T05:25:44.467Z,147421.98
2024-01-15T05:26:47.244Z,147454.87
2024-01-15T05:27:49.222Z,147470.06
2024-01-15T05:28:51.188Z,147421.98
2024-01-15T05:29:53.184Z,147401.73
2024-01-15T05:30:55.499Z,147376.45
2024-01-15T05:32:01.290Z,147418.19
2024-01-15T05:33:01.676Z,147427.03
2024-01-15T05:34:03.956Z,147401.73
2024-01-15T05:35:06.247Z,147439.72
2024-01-15T05:36:08.846Z,147410.58
2024-01-15T05:37:10.905Z,147437.19
2024-01-15T05:38:13.065Z,147429.58
2024-01-15T05:39:15.321Z,147395.39
2024-01-15T05:40:17.829Z,147423.23
2024-01-15T05:41:19.752Z,147403.00
2024-01-15T05:42:21.808Z,147408.09
2024-01-15T05:43:23.755Z,147471.37
2024-01-15T05:44:25.728Z,147467.56
2024-01-15T05:45:27.934Z,147472.63
2024-01-15T05:46:29.977Z,147444.78
2024-01-15T05:47:32.151Z,147409.34
2024-01-15T05:48:34.453Z,147404.28
2024-01-15T05:49:36.777Z,147419.44
2024-01-15T05:50:39.193Z,147458.67
2024-01-15T05:51:41.153Z,147449.83
2024-01-15T05:52:43.124Z,147404.28
2024-01-15T05:53:45.042Z,147391.59
2024-01-15T05:54:47.156Z,147442.22
2024-01-15T05:55:49.190Z,147449.83
2024-01-15T05:56:51.264Z,147427.03
2024-01-15T05:57:53.227Z,147470.06
2024-01-15T05:58:55.131Z,147489.06
2024-01-15T05:59:57.296Z,147413.12
2024-01-15T06:00:59.781Z,147419.44
2024-01-15T06:02:01.909Z,147420.73
2024-01-15T06:03:06.072Z,147387.80
2024-01-15T06:04:09.434Z,147413.12
2024-01-15T06:05:11.636Z,147438.42
2024-01-15T06:06:14.242Z,147372.66
2024-01-15T06:07:16.565Z,147421.98
2024-01-15T06:08:18.565Z,147429.58
2024-01-15T06:09:20.569Z,147454.87
2024-01-15T06:10:23.688Z,147470.06
2024-01-15T06:11:30.594Z,147487.81
2024-01-15T06:12:32.557Z,147459.97
2024-01-15T06:13:35.008Z,147439.72
2024-01-15T06:14:36.905Z,147487.81
2024-01-15T06:15:40.283Z,147468.81
2024-01-15T06:16:42.876Z,147416.94
2024-01-15T06:17:47.133Z,147457.42
2024-01-15T06:18:49.300Z,147439.72
2024-01-15T06:19:51.585Z,147467.56
2024-01-15T06:20:53.844Z,147452.38
2024-01-15T06:21:56.480Z,147435.94
2024-01-15T06:22:58.530Z,147471.37
2024-01-15T06:24:00.462Z,147462.47
2024-01-15T06:25:03.390Z,147468.81
2024-01-15T06:26:05.593Z,147485.27
2024-01-15T06:27:08.352Z,147485.27
2024-01-15T06:28:11.815Z,147494.13
2024-01-15T06:29:14.002Z,147462.47
2024-01-15T06:30:18.214Z,147499.22
2024-01-15T06:31:20.398Z,147504.27
2024-01-15T06:32:22.418Z,147461.22
2024-01-15T06:33:24.717Z,147481.47
2024-01-15T06:34:26.818Z,147452.38
2024-01-15T06:35:28.849Z,147505.52
2024-01-15T06:36:31.948Z,147434.63
2024-01-15T06:37:34.344Z,147454.87
2024-01-15T06:38:36.301Z,147504.27
2024-01-15T06:39:38.365Z,147473.88
2024-01-15T06:40:40.497Z,147462.47
2024-01-15T06:41:42.717Z,147434.63
2024-01-15T06:42:44.753Z,147465.03
2024-01-15T06:43:46.766Z,147500.47
2024-01-15T06:44:48.646Z,147501.72
2024-01-15T06:45:50.827Z,147495.42
2024-01-15T06:46:53.381Z,147486.52
2024-01-15T06:47:55.353Z,147497.92
2024-01-15T06:48:57.431Z,147496.66
2024-01-15T06:49:59.519Z,147485.27
2024-01-15T06:51:01.606Z,147467.56
2024-01-15T06:52:04.113Z,147465.03
2024-01-15T06:53:06.246Z,147487.81
2024-01-15T06:54:08.602Z,147486.52
2024-01-15T06:55:10.585Z,147515.67
2024-01-15T06:56:14.094Z,147510.61
2024-01-15T06:57:16.125Z,147515.67
2024-01-15T06:58:18.098Z,147553.63
2024-01-15T06:59:20.692Z,147496.66
2024-01-15T07:00:23.119Z,147525.77
2024-01-15T07:01:25.433Z,147540.97
2024-01-15T07:02:27.656Z,147546.02
2024-01-15T07:03:29.791Z,147513.13
2024-01-15T07:04:31.820Z,147537.17
2024-01-15T07:05:36.018Z,147534.66
2024-01-15T07:06:39.285Z,147543.52
2024-01-15T07:07:41.486Z,147495.42
2024-01-15T07:08:43.812Z,147538.47
2024-01-15T07:09:45.848Z,147554.92
2024-01-15T07:10:48.068Z,147535.92
2024-01-15T07:11:50.125Z,147520.72
2024-01-15T07:12:55.770Z,147525.77
2024-01-15T07:14:00.365Z,147540.97
2024-01-15T07:15:02.714Z,147553.63
2024-01-15T07:16:05.443Z,147549.81
2024-01-15T07:17:07.593Z,147527.06
2024-01-15T07:18:09.622Z,147527.06
2024-01-15T07:19:12.412Z,147575.17
2024-01-15T07:20:16.863Z,147558.72
2024-01-15T07:21:19.260Z,147573.92
2024-01-15T07:22:22.528Z,147591.62
2024-01-15T07:23:24.513Z,147489.06
2024-01-15T07:24:26.528Z,147529.56
2024-01-15T07:25:29.243Z,147538.47
2024-01-15T07:26:31.778Z,147538.47
2024-01-15T07:27:35.022Z,147482.72
2024-01-15T07:28:37.228Z,147565.02
2024-01-15T07:29:41.103Z,147608.08
2024-01-15T07:30:48.055Z,147565.02
2024-01-15T07:31:51.966Z,147543.52
2024-01-15T07:32:54.451Z,147499.22
2024-01-15T07:33:57.825Z,147539.72
2024-01-15T07:35:01.610Z,147520.72
2024-01-15T07:36:07.462Z,147496.66
2024-01-15T07:37:09.527Z,147548.56
2024-01-15T07:38:11.903Z,147525.77
2024-01-15T07:39:14.086Z,147537.17
2024-01-15T07:40:19.242Z,147542.27
2024-01-15T07:41:21.304Z,147567.56
2024-01-15T07:42:23.221Z,147523.27
2024-01-15T07:43:26.652Z,147524.52
2024-01-15T07:44:28.723Z,147482.72
2024-01-15T07:45:32.240Z,147575.17
2024-01-15T07:46:34.880Z,147613.13
2024-01-15T07:47:37.072Z,147546.02
2024-01-15T07:48:41.362Z,147513.13
2024-01-15T07:49:44.604Z,147513.13
2024-01-15T07:50:51.484Z,147589.08
2024-01-15T07:51:53.624Z,147540.97
2024-01-15T07:52:55.769Z,147581.47
2024-01-15T07:53:58.110Z,147551.12
2024-01-15T07:55:01.377Z,147535.92
2024-01-15T07:56:05.416Z,147516.92
2024-01-15T07:57:07.455Z,147528.31
2024-01-15T07:58:15.918Z,147515.67
2024-01-15T07:59:13.148Z,147558.72
2024-01-15T08:00:17.995Z,147553.63
2024-01-15T08:01:23.379Z,147624.53
2024-01-15T08:02:26.323Z,147521.97
2024-01-15T08:03:28.560Z,147571.38
2024-01-15T08:04:30.890Z,147601.78
2024-01-15T08:05:33.134Z,147633.44
2024-01-15T08:06:36.922Z,147594.17
2024-01-15T08:07:40.124Z,147546.02
2024-01-15T08:08:42.049Z,147591.62
2024-01-15T08:09:44.037Z,147658.75
2024-01-15T08:10:47.490Z,147614.44
2024-01-15T08:11:49.616Z,147611.88
2024-01-15T08:12:51.615Z,147639.75
2024-01-15T08:13:53.573Z,147641.05
2024-01-15T08:14:55.618Z,147710.69
2024-01-15T08:15:57.912Z,147743.61
2024-01-15T08:17:00.449Z,147658.75
2024-01-15T08:18:03.858Z,147642.30
2024-01-15T08:19:06.111Z,147671.41
2024-01-15T08:20:09.808Z,147623.28
2024-01-15T08:21:11.963Z,147686.61
2024-01-15T08:22:14.044Z,147644.80
2024-01-15T08:23:15.983Z,147685.36
2024-01-15T08:24:18.516Z,147660.00
2024-01-15T08:25:22.629Z,147599.22
2024-01-15T08:26:25.204Z,147604.28
2024-01-15T08:27:27.237Z,147649.91
2024-01-15T08:28:29.311Z,147654.95
2024-01-15T08:29:31.245Z,147609.34
2024-01-15T08:30:33.465Z,147642.30
2024-01-15T08:31:37.498Z,147652.41
2024-01-15T08:32:39.629Z,147679.02
2024-01-15T08:33:41.690Z,147667.61
2024-01-15T08:34:43.769Z,147571.38
2024-01-15T08:35:45.803Z,147606.83
2024-01-15T08:36:48.269Z,147641.05
2024-01-15T08:37:52.698Z,147647.34
2024-01-15T08:38:54.722Z,147629.64
2024-01-15T08:39:56.883Z,147580.22
2024-01-15T08:40:59.684Z,147609.34
2024-01-15T08:42:02.889Z,147667.61
2024-01-15T08:43:06.802Z,147663.81
2024-01-15T08:44:08.812Z,147660.00
2024-01-15T08:45:10.757Z,147703.08
2024-01-15T08:46:14.233Z,147705.63
2024-01-15T08:47:16.199Z,147687.87
2024-01-15T08:48:18.293Z,147596.69
2024-01-15T08:49:20.276Z,147681.56
2024-01-15T08:50:22.907Z,147682.81
2024-01-15T08:51:24.871Z,147717.03
2024-01-15T08:52:28.213Z,147728.44
2024-01-15T08:53:30.143Z,147781.64
2024-01-15T08:54:32.100Z,147753.75
2024-01-15T08:55:34.565Z,147690.42
2024-01-15T08:56:39.527Z,147729.69
2024-01-15T08:57:41.824Z,147733.50
2024-01-15T08:58:44.477Z,147761.38
2024-01-15T08:59:46.405Z,147784.19
2024-01-15T09:00:49.007Z,147746.16
2024-01-15T09:01:53.195Z,147727.14
2024-01-15T09:02:55.816Z,147812.06
2024-01-15T09:03:57.963Z,147808.25
2024-01-15T09:05:00.057Z,147808.25
2024-01-15T09:06:04.904Z,147800.66
2024-01-15T09:07:09.247Z,147776.58
2024-01-15T09:08:11.401Z,147828.53
2024-01-15T09:09:14.393Z,147833.59
2024-01-15T09:10:17.099Z,147781.64
2024-01-15T09:11:22.436Z,147765.17
2024-01-15T09:12:28.081Z,147779.09
2024-01-15T09:13:30.133Z,147780.38
2024-01-15T09:14:36.765Z,147806.97
2024-01-15T09:15:36.199Z,147786.69
2024-01-15T09:16:38.638Z,147765.17
2024-01-15T09:17:40.660Z,147824.72
2024-01-15T09:18:42.990Z,147810.77
2024-01-15T09:19:45.233Z,147827.28
2024-01-15T09:20:47.792Z,147791.78
2024-01-15T09:21:49.921Z,147872.88
2024-01-15T09:22:52.300Z,147771.47
2024-01-15T09:23:54.332Z,147795.59
2024-01-15T09:24:56.470Z,147774.03
2024-01-15T09:25:58.706Z,147776.58
2024-01-15T09:27:01.088Z,147848.80
2024-01-15T09:28:03.543Z,147806.97
2024-01-15T09:29:05.529Z,147862.77
2024-01-15T09:30:08.484Z,147851.36
2024-01-15T09:31:10.668Z,147905.81
2024-01-15T09:32:13.268Z,147908.37
2024-01-15T09:33:17.395Z,147860.22
2024-01-15T09:34:19.601Z,147833.59
2024-01-15T09:35:23.651Z,147837.39
2024-01-15T09:36:27.272Z,147896.97
2024-01-15T09:37:41.202Z,147877.94
2024-01-15T09:38:33.175Z,147877.94
2024-01-15T09:39:35.380Z,147905.81
2024-01-15T09:40:43.172Z,147909.63
2024-01-15T09:41:48.025Z,147919.78
2024-01-15T09:42:54.329Z,147855.16
2024-01-15T09:43:57.979Z,147921.03
2024-01-15T09:45:00.778Z,147869.08
2024-01-15T09:46:03.985Z,147876.69
2024-01-15T09:47:08.118Z,147915.98
2024-01-15T09:48:11.075Z,147909.63
2024-01-15T09:49:14.563Z,147928.66
2024-01-15T09:50:20.895Z,147900.77
2024-01-15T09:51:25.485Z,147909.63
2024-01-15T09:52:27.572Z,147902.02
2024-01-15T09:53:30.766Z,147908.37
2024-01-15T09:54:36.483Z,147967.95
2024-01-15T09:55:38.524Z,147951.48
2024-01-15T09:56:41.063Z,147933.72
2024-01-15T09:57:44.863Z,147923.59
2024-01-15T09:58:49.512Z,147955.28
2024-01-15T09:59:54.846Z,147931.20
2024-01-15T10:00:58.768Z,147978.12
2024-01-15T10:02:03.236Z,147962.91
2024-01-15T10:03:07.344Z,147935.02
2024-01-15T10:04:10.103Z,147999.66
2024-01-15T10:05:13.331Z,147919.78
2024-01-15T10:06:19.556Z,147983.19
2024-01-15T10:07:22.077Z,148011.08
2024-01-15T10:08:24.105Z,147999.66
2024-01-15T10:09:26.436Z,147938.81
2024-01-15T10:10:29.863Z,147950.22
2024-01-15T10:11:36.187Z,147950.22
2024-01-15T10:12:42.080Z,147975.56
2024-01-15T10:13:51.394Z,147992.05
2024-01-15T10:14:53.907Z,148017.44
2024-01-15T10:15:57.450Z,147980.63
2024-01-15T10:17:00.498Z,147964.16
2024-01-15T10:18:03.057Z,147994.59
2024-01-15T10:19:05.376Z,148022.50
2024-01-15T10:20:12.320Z,147966.70
2024-01-15T10:21:15.641Z,147945.13
2024-01-15T10:22:17.680Z,147997.16
2024-01-15T10:23:19.676Z,147929.95
2024-01-15T10:24:27.338Z,147954.03
2024-01-15T10:25:30.454Z,147946.42
2024-01-15T10:26:33.924Z,148019.94
2024-01-15T10:27:37.249Z,147950.22
2024-01-15T10:28:40.161Z,147966.70
2024-01-15T10:29:44.479Z,147979.37
2024-01-15T10:30:49.175Z,147999.66
2024-01-15T10:31:52.564Z,147940.06
2024-01-15T10:33:01.127Z,147964.16
2024-01-15T10:34:12.228Z,147954.03
2024-01-15T10:35:16.231Z,147922.34
2024-01-15T10:36:21.697Z,147927.41
2024-01-15T10:37:28.541Z,147904.56
2024-01-15T10:38:29.334Z,147876.69
2024-01-15T10:39:38.052Z,147921.03
2024-01-15T10:40:43.721Z,147915.98
2024-01-15T10:41:45.842Z,147954.03
2024-01-15T10:42:52.500Z,147938.81
2024-01-15T10:43:57.422Z,147919.78
2024-01-15T10:45:00.254Z,147929.95
2024-01-15T10:46:03.998Z,147945.13
2024-01-15T10:47:06.975Z,147937.52
2024-01-15T10:48:11.092Z,147900.77
2024-01-15T10:49:13.502Z,147922.34
2024-01-15T10:50:24.982Z,147976.83
2024-01-15T10:51:27.348Z,147975.56
2024-01-15T10:52:30.124Z,147961.64
2024-01-15T10:53:33.521Z,147895.70
2024-01-15T10:54:40.345Z,147957.84
2024-01-15T10:55:44.327Z,147973.02
2024-01-15T10:56:50.423Z,147917.23
2024-01-15T10:57:54.362Z,147900.77
2024-01-15T10:59:00.812Z,147890.66
2024-01-15T11:00:03.922Z,147956.53
2024-01-15T11:01:07.585Z,147910.92
2024-01-15T11:02:10.346Z,147926.14
2024-01-15T11:03:13.160Z,147846.25
2024-01-15T11:04:15.904Z,147858.97
2024-01-15T11:05:19.088Z,147936.27
2024-01-15T11:06:24.776Z,147910.92
2024-01-15T11:07:29.595Z,147918.53
2024-01-15T11:08:32.243Z,147910.92
2024-01-15T11:09:35.545Z,147986.98
2024-01-15T11:10:46.086Z,147941.31
2024-01-15T11:11:51.741Z,147870.33
2024-01-15T11:12:53.690Z,147875.44
2024-01-15T11:13:55.961Z,147890.66
2024-01-15T11:15:05.568Z,147846.25
2024-01-15T11:16:11.189Z,147950.22
2024-01-15T11:17:14.949Z,147980.63
2024-01-15T11:18:17.070Z,147862.77
2024-01-15T11:19:19.405Z,147876.69
2024-01-15T11:20:22.218Z,147936.27
2024-01-15T11:21:27.862Z,147935.02
2024-01-15T11:22:33.919Z,147884.30
2024-01-15T11:23:57.004Z,147857.66
2024-01-15T11:26:38.396Z,147898.27
2024-01-15T11:27:43.499Z,147865.27
2024-01-15T11:28:48.571Z,147870.33
2024-01-15T11:29:54.300Z,147843.75
2024-01-15T11:30:59.161Z,147827.28
2024-01-15T11:32:07.398Z,147880.48
2024-01-15T11:33:19.762Z,147825.97
2024-01-15T11:34:24.361Z,147885.55
2024-01-15T11:35:30.224Z,147907.13
2024-01-15T11:36:55.922Z,147867.81
2024-01-15T11:37:58.718Z,147874.13
2024-01-15T11:39:00.842Z,147810.77
2024-01-15T11:40:03.944Z,147825.97
2024-01-15T11:41:09.866Z,147883.03
2024-01-15T11:42:13.966Z,147831.08
2024-01-15T11:43:16.300Z,147877.94
2024-01-15T11:44:19.472Z,147856.41
2024-01-15T11:45:23.165Z,147891.91
2024-01-15T11:46:29.998Z,147885.55
2024-01-15T11:47:57.958Z,147898.27
2024-01-15T11:49:04.124Z,147885.55
2024-01-15T11:50:07.914Z,147888.09
2024-01-15T11:51:12.104Z,147877.94
2024-01-15T11:52:17.721Z,147804.45
2024-01-15T11:53:45.787Z,147829.78
2024-01-15T11:55:02.969Z,147822.17
2024-01-15T11:56:10.091Z,147869.08
2024-01-15T11:57:16.431Z,147848.80
2024-01-15T11:58:18.730Z,147820.92
2024-01-15T11:59:20.708Z,147871.63
2024-01-15T12:00:26.097Z,147860.22
2024-01-15T12:01:29.648Z,147872.88